sensor_id;sensor_type;location;lat;lon;timestamp;P1;durP1;ratioP1;P2;durP2;ratioP2
34489;SDS011;20730;49.372;7.324;2023-11-19T00:01:58;0.80;;;0.80;;
34489;SDS011;20730;49.372;7.324;2023-11-19T00:04:25;1.10;;;0.80;;
34489;SDS011;20730;49.372;7.324;2023-11-19T00:06:51;1.33;;;1.00;;
34489;SDS011;20730;49.372;7.324;2023-11-19T00:09:18;2.33;;;1.00;;
34489;SDS011;20730;49.372;7.324;2023-11-19T00:11:45;1.23;;;0.88;;
34489;SDS011;20730;49.372;7.324;2023-11-19T00:14:20;2.45;;;1.10;;
34489;SDS011;20730;49.372;7.324;2023-11-19T00:16:46;1.38;;;0.70;;
34489;SDS011;20730;49.372;7.324;2023-11-19T00:19:13;0.70;;;0.70;;
34489;SDS011;20730;49.372;7.324;2023-11-19T00:21:40;1.63;;;0.95;;
34489;SDS011;20730;49.372;7.324;2023-11-19T00:24:07;1.42;;;0.95;;
34489;SDS011;20730;49.372;7.324;2023-11-19T00:26:34;1.27;;;0.90;;
34489;SDS011;20730;49.372;7.324;2023-11-19T00:29:01;0.95;;;0.82;;
34489;SDS011;20730;49.372;7.324;2023-11-19T00:31:28;1.23;;;0.82;;
34489;SDS011;20730;49.372;7.324;2023-11-19T00:33:56;4.25;;;0.80;;
34489;SDS011;20730;49.372;7.324;2023-11-19T00:36:23;1.00;;;0.90;;
34489;SDS011;20730;49.372;7.324;2023-11-19T00:38:50;2.25;;;0.68;;
34489;SDS011;20730;49.372;7.324;2023-11-19T00:41:19;0.70;;;0.70;;
34489;SDS011;20730;49.372;7.324;2023-11-19T00:43:46;0.70;;;0.70;;
34489;SDS011;20730;49.372;7.324;2023-11-19T00:46:13;1.48;;;0.80;;
34489;SDS011;20730;49.372;7.324;2023-11-19T00:48:40;1.00;;;0.50;;
34489;SDS011;20730;49.372;7.324;2023-11-19T00:51:07;0.50;;;0.50;;
34489;SDS011;20730;49.372;7.324;2023-11-19T00:53:34;1.08;;;0.60;;
34489;SDS011;20730;49.372;7.324;2023-11-19T00:56:00;0.68;;;0.60;;
34489;SDS011;20730;49.372;7.324;2023-11-19T00:58:27;0.50;;;0.50;;
34489;SDS011;20730;49.372;7.324;2023-11-19T01:00:54;2.05;;;0.50;;
34489;SDS011;20730;49.372;7.324;2023-11-19T01:03:20;0.35;;;0.35;;
34489;SDS011;20730;49.372;7.324;2023-11-19T01:05:47;2.28;;;0.60;;
34489;SDS011;20730;49.372;7.324;2023-11-19T01:08:14;0.45;;;0.40;;
34489;SDS011;20730;49.372;7.324;2023-11-19T01:10:42;0.32;;;0.32;;
34489;SDS011;20730;49.372;7.324;2023-11-19T01:13:09;0.90;;;0.50;;
34489;SDS011;20730;49.372;7.324;2023-11-19T01:15:36;3.10;;;0.40;;
34489;SDS011;20730;49.372;7.324;2023-11-19T01:18:03;0.40;;;0.40;;
34489;SDS011;20730;49.372;7.324;2023-11-19T01:20:31;0.40;;;0.40;;
34489;SDS011;20730;49.372;7.324;2023-11-19T01:23:00;0.32;;;0.32;;
34489;SDS011;20730;49.372;7.324;2023-11-19T01:25:27;0.30;;;0.30;;
34489;SDS011;20730;49.372;7.324;2023-11-19T01:27:53;0.50;;;0.50;;
34489;SDS011;20730;49.372;7.324;2023-11-19T01:30:21;0.60;;;0.52;;
34489;SDS011;20730;49.372;7.324;2023-11-19T01:32:48;0.40;;;0.40;;
34489;SDS011;20730;49.372;7.324;2023-11-19T01:35:15;1.02;;;0.50;;
34489;SDS011;20730;49.372;7.324;2023-11-19T01:37:42;0.43;;;0.43;;
34489;SDS011;20730;49.372;7.324;2023-11-19T01:40:08;2.63;;;0.50;;
34489;SDS011;20730;49.372;7.324;2023-11-19T01:42:38;2.03;;;1.05;;
34489;SDS011;20730;49.372;7.324;2023-11-19T01:45:05;0.50;;;0.50;;
34489;SDS011;20730;49.372;7.324;2023-11-19T01:47:35;2.70;;;0.50;;
34489;SDS011;20730;49.372;7.324;2023-11-19T01:50:07;0.50;;;0.50;;
34489;SDS011;20730;49.372;7.324;2023-11-19T01:52:34;0.50;;;0.50;;
34489;SDS011;20730;49.372;7.324;2023-11-19T01:55:06;0.50;;;0.50;;
34489;SDS011;20730;49.372;7.324;2023-11-19T01:57:33;0.50;;;0.50;;
34489;SDS011;20730;49.372;7.324;2023-11-19T02:00:00;0.52;;;0.52;;
34489;SDS011;20730;49.372;7.324;2023-11-19T02:02:39;1.40;;;0.60;;
34489;SDS011;20730;49.372;7.324;2023-11-19T02:05:07;0.63;;;0.63;;
34489;SDS011;20730;49.372;7.324;2023-11-19T02:07:34;0.60;;;0.60;;
34489;SDS011;20730;49.372;7.324;2023-11-19T02:10:01;1.40;;;0.75;;
34489;SDS011;20730;49.372;7.324;2023-11-19T02:12:30;1.55;;;1.30;;
34489;SDS011;20730;49.372;7.324;2023-11-19T02:15:00;1.75;;;1.15;;
34489;SDS011;20730;49.372;7.324;2023-11-19T02:17:30;2.38;;;1.13;;
34489;SDS011;20730;49.372;7.324;2023-11-19T02:19:58;0.93;;;0.90;;
34489;SDS011;20730;49.372;7.324;2023-11-19T02:22:33;2.50;;;1.42;;
34489;SDS011;20730;49.372;7.324;2023-11-19T02:25:01;1.10;;;1.00;;
34489;SDS011;20730;49.372;7.324;2023-11-19T02:27:37;0.90;;;0.90;;
34489;SDS011;20730;49.372;7.324;2023-11-19T02:30:05;2.67;;;1.27;;
34489;SDS011;20730;49.372;7.324;2023-11-19T02:32:34;0.68;;;0.68;;
34489;SDS011;20730;49.372;7.324;2023-11-19T02:35:02;0.70;;;0.70;;
34489;SDS011;20730;49.372;7.324;2023-11-19T02:37:31;0.70;;;0.70;;
34489;SDS011;20730;49.372;7.324;2023-11-19T02:39:58;0.70;;;0.70;;
34489;SDS011;20730;49.372;7.324;2023-11-19T02:42:35;1.00;;;0.80;;
34489;SDS011;20730;49.372;7.324;2023-11-19T02:45:02;1.42;;;0.88;;
34489;SDS011;20730;49.372;7.324;2023-11-19T02:47:32;1.40;;;1.02;;
34489;SDS011;20730;49.372;7.324;2023-11-19T02:50:00;1.45;;;0.80;;
34489;SDS011;20730;49.372;7.324;2023-11-19T02:52:27;0.90;;;0.90;;
34489;SDS011;20730;49.372;7.324;2023-11-19T02:54:54;0.73;;;0.73;;
34489;SDS011;20730;49.372;7.324;2023-11-19T02:57:22;1.63;;;0.88;;
34489;SDS011;20730;49.372;7.324;2023-11-19T02:59:49;0.80;;;0.52;;
34489;SDS011;20730;49.372;7.324;2023-11-19T03:02:16;0.70;;;0.70;;
34489;SDS011;20730;49.372;7.324;2023-11-19T03:04:44;0.55;;;0.55;;
34489;SDS011;20730;49.372;7.324;2023-11-19T03:07:12;0.70;;;0.70;;
34489;SDS011;20730;49.372;7.324;2023-11-19T03:09:40;0.73;;;0.73;;
34489;SDS011;20730;49.372;7.324;2023-11-19T03:12:07;0.80;;;0.80;;
34489;SDS011;20730;49.372;7.324;2023-11-19T03:14:33;0.90;;;0.90;;
34489;SDS011;20730;49.372;7.324;2023-11-19T03:17:04;1.17;;;1.02;;
34489;SDS011;20730;49.372;7.324;2023-11-19T03:19:31;1.17;;;1.00;;
34489;SDS011;20730;49.372;7.324;2023-11-19T03:21:59;0.90;;;0.90;;
34489;SDS011;20730;49.372;7.324;2023-11-19T03:24:28;1.13;;;1.02;;
34489;SDS011;20730;49.372;7.324;2023-11-19T03:26:55;1.45;;;1.25;;
34489;SDS011;20730;49.372;7.324;2023-11-19T03:29:21;1.38;;;1.27;;
34489;SDS011;20730;49.372;7.324;2023-11-19T03:31:49;1.45;;;1.35;;
34489;SDS011;20730;49.372;7.324;2023-11-19T03:34:17;1.33;;;1.23;;
34489;SDS011;20730;49.372;7.324;2023-11-19T03:36:43;1.60;;;1.50;;
34489;SDS011;20730;49.372;7.324;2023-11-19T03:39:10;2.38;;;1.65;;
34489;SDS011;20730;49.372;7.324;2023-11-19T03:41:37;2.13;;;1.73;;
34489;SDS011;20730;49.372;7.324;2023-11-19T03:44:07;2.87;;;2.57;;
34489;SDS011;20730;49.372;7.324;2023-11-19T03:46:33;3.30;;;3.00;;
34489;SDS011;20730;49.372;7.324;2023-11-19T03:49:01;3.72;;;3.30;;
34489;SDS011;20730;49.372;7.324;2023-11-19T03:51:30;5.60;;;3.25;;
34489;SDS011;20730;49.372;7.324;2023-11-19T03:53:57;4.75;;;4.22;;
34489;SDS011;20730;49.372;7.324;2023-11-19T03:56:23;4.60;;;3.63;;
34489;SDS011;20730;49.372;7.324;2023-11-19T03:58:50;5.50;;;4.22;;
34489;SDS011;20730;49.372;7.324;2023-11-19T04:01:16;4.20;;;3.80;;
34489;SDS011;20730;49.372;7.324;2023-11-19T04:03:43;5.45;;;3.83;;
34489;SDS011;20730;49.372;7.324;2023-11-19T04:06:13;6.63;;;5.00;;
34489;SDS011;20730;49.372;7.324;2023-11-19T04:08:40;7.03;;;5.03;;
34489;SDS011;20730;49.372;7.324;2023-11-19T04:11:07;5.70;;;5.18;;
34489;SDS011;20730;49.372;7.324;2023-11-19T04:13:35;6.70;;;6.00;;
34489;SDS011;20730;49.372;7.324;2023-11-19T04:16:01;6.68;;;5.80;;
34489;SDS011;20730;49.372;7.324;2023-11-19T04:18:28;7.10;;;6.05;;
34489;SDS011;20730;49.372;7.324;2023-11-19T04:20:55;8.18;;;6.72;;
34489;SDS011;20730;49.372;7.324;2023-11-19T04:23:22;8.88;;;6.93;;
34489;SDS011;20730;49.372;7.324;2023-11-19T04:25:51;8.25;;;6.53;;
34489;SDS011;20730;49.372;7.324;2023-11-19T04:28:17;9.95;;;6.78;;
34489;SDS011;20730;49.372;7.324;2023-11-19T04:30:44;7.55;;;6.25;;
34489;SDS011;20730;49.372;7.324;2023-11-19T04:33:11;6.90;;;6.20;;
34489;SDS011;20730;49.372;7.324;2023-11-19T04:35:38;8.25;;;6.60;;
34489;SDS011;20730;49.372;7.324;2023-11-19T04:38:05;6.75;;;6.15;;
34489;SDS011;20730;49.372;7.324;2023-11-19T04:40:32;8.95;;;6.07;;
34489;SDS011;20730;49.372;7.324;2023-11-19T04:43:00;6.65;;;5.10;;
34489;SDS011;20730;49.372;7.324;2023-11-19T04:45:27;6.95;;;4.93;;
34489;SDS011;20730;49.372;7.324;2023-11-19T04:47:54;6.05;;;4.70;;
34489;SDS011;20730;49.372;7.324;2023-11-19T04:50:21;6.50;;;4.43;;
34489;SDS011;20730;49.372;7.324;2023-11-19T04:52:47;4.63;;;3.60;;
34489;SDS011;20730;49.372;7.324;2023-11-19T04:55:14;4.55;;;3.00;;
34489;SDS011;20730;49.372;7.324;2023-11-19T04:57:41;3.45;;;2.75;;
34489;SDS011;20730;49.372;7.324;2023-11-19T05:00:09;3.75;;;2.70;;
34489;SDS011;20730;49.372;7.324;2023-11-19T05:02:40;4.20;;;3.40;;
34489;SDS011;20730;49.372;7.324;2023-11-19T05:05:07;4.35;;;3.45;;
34489;SDS011;20730;49.372;7.324;2023-11-19T05:07:35;4.60;;;3.17;;
34489;SDS011;20730;49.372;7.324;2023-11-19T05:10:02;7.03;;;3.80;;
34489;SDS011;20730;49.372;7.324;2023-11-19T05:12:30;4.50;;;4.00;;
34489;SDS011;20730;49.372;7.324;2023-11-19T05:14:58;9.25;;;4.57;;
34489;SDS011;20730;49.372;7.324;2023-11-19T05:17:24;7.13;;;4.28;;
34489;SDS011;20730;49.372;7.324;2023-11-19T05:19:51;11.35;;;4.22;;
34489;SDS011;20730;49.372;7.324;2023-11-19T05:22:18;6.93;;;4.05;;
34489;SDS011;20730;49.372;7.324;2023-11-19T05:24:47;7.18;;;4.25;;
34489;SDS011;20730;49.372;7.324;2023-11-19T05:27:14;7.38;;;3.92;;
34489;SDS011;20730;49.372;7.324;2023-11-19T05:29:41;6.45;;;4.03;;
34489;SDS011;20730;49.372;7.324;2023-11-19T05:32:09;9.45;;;4.97;;
34489;SDS011;20730;49.372;7.324;2023-11-19T05:34:36;6.22;;;3.40;;
34489;SDS011;20730;49.372;7.324;2023-11-19T05:37:03;5.70;;;3.05;;
34489;SDS011;20730;49.372;7.324;2023-11-19T05:39:32;6.53;;;3.40;;
34489;SDS011;20730;49.372;7.324;2023-11-19T05:41:58;5.47;;;2.95;;
34489;SDS011;20730;49.372;7.324;2023-11-19T05:44:25;4.28;;;2.45;;
34489;SDS011;20730;49.372;7.324;2023-11-19T05:46:52;3.85;;;2.60;;
34489;SDS011;20730;49.372;7.324;2023-11-19T05:49:19;5.13;;;3.15;;
34489;SDS011;20730;49.372;7.324;2023-11-19T05:51:46;4.88;;;2.60;;
34489;SDS011;20730;49.372;7.324;2023-11-19T05:54:12;6.80;;;2.65;;
34489;SDS011;20730;49.372;7.324;2023-11-19T05:56:39;4.97;;;2.30;;
34489;SDS011;20730;49.372;7.324;2023-11-19T05:59:07;7.45;;;2.50;;
34489;SDS011;20730;49.372;7.324;2023-11-19T06:01:41;4.47;;;2.40;;
34489;SDS011;20730;49.372;7.324;2023-11-19T06:04:08;7.78;;;2.30;;
34489;SDS011;20730;49.372;7.324;2023-11-19T06:06:34;6.90;;;2.15;;
34489;SDS011;20730;49.372;7.324;2023-11-19T06:09:01;4.68;;;2.17;;
34489;SDS011;20730;49.372;7.324;2023-11-19T06:11:39;4.80;;;2.03;;
34489;SDS011;20730;49.372;7.324;2023-11-19T06:14:06;5.88;;;2.08;;
34489;SDS011;20730;49.372;7.324;2023-11-19T06:16:33;3.08;;;1.65;;
34489;SDS011;20730;49.372;7.324;2023-11-19T06:19:00;4.22;;;1.80;;
34489;SDS011;20730;49.372;7.324;2023-11-19T06:21:27;3.40;;;1.70;;
34489;SDS011;20730;49.372;7.324;2023-11-19T06:23:53;4.70;;;1.65;;
34489;SDS011;20730;49.372;7.324;2023-11-19T06:26:20;6.57;;;1.75;;
34489;SDS011;20730;49.372;7.324;2023-11-19T06:28:48;7.32;;;1.60;;
34489;SDS011;20730;49.372;7.324;2023-11-19T06:31:15;3.63;;;1.67;;
34489;SDS011;20730;49.372;7.324;2023-11-19T06:33:42;4.00;;;1.80;;
34489;SDS011;20730;49.372;7.324;2023-11-19T06:36:09;5.60;;;2.08;;
34489;SDS011;20730;49.372;7.324;2023-11-19T06:38:36;5.40;;;2.08;;
34489;SDS011;20730;49.372;7.324;2023-11-19T06:41:05;5.18;;;2.42;;
34489;SDS011;20730;49.372;7.324;2023-11-19T06:43:33;3.45;;;2.38;;
34489;SDS011;20730;49.372;7.324;2023-11-19T06:46:03;6.37;;;2.10;;
34489;SDS011;20730;49.372;7.324;2023-11-19T06:48:32;7.10;;;2.40;;
34489;SDS011;20730;49.372;7.324;2023-11-19T06:50:59;6.78;;;2.13;;
34489;SDS011;20730;49.372;7.324;2023-11-19T06:53:26;9.25;;;3.00;;
34489;SDS011;20730;49.372;7.324;2023-11-19T06:55:54;9.77;;;2.70;;
34489;SDS011;20730;49.372;7.324;2023-11-19T06:58:21;8.88;;;3.08;;
34489;SDS011;20730;49.372;7.324;2023-11-19T07:00:47;5.18;;;2.13;;
34489;SDS011;20730;49.372;7.324;2023-11-19T07:03:16;6.60;;;2.20;;
34489;SDS011;20730;49.372;7.324;2023-11-19T07:05:42;3.50;;;2.05;;
34489;SDS011;20730;49.372;7.324;2023-11-19T07:08:10;4.28;;;1.75;;
34489;SDS011;20730;49.372;7.324;2023-11-19T07:10:37;6.45;;;1.98;;
34489;SDS011;20730;49.372;7.324;2023-11-19T07:13:04;4.78;;;1.50;;
34489;SDS011;20730;49.372;7.324;2023-11-19T07:15:32;3.05;;;1.65;;
34489;SDS011;20730;49.372;7.324;2023-11-19T07:17:59;4.93;;;1.40;;
34489;SDS011;20730;49.372;7.324;2023-11-19T07:20:28;2.63;;;1.33;;
34489;SDS011;20730;49.372;7.324;2023-11-19T07:22:55;2.08;;;1.17;;
34489;SDS011;20730;49.372;7.324;2023-11-19T07:25:23;5.00;;;1.60;;
34489;SDS011;20730;49.372;7.324;2023-11-19T07:27:51;3.85;;;1.45;;
34489;SDS011;20730;49.372;7.324;2023-11-19T07:30:19;3.97;;;1.40;;
34489;SDS011;20730;49.372;7.324;2023-11-19T07:32:45;5.85;;;1.35;;
34489;SDS011;20730;49.372;7.324;2023-11-19T07:35:12;3.80;;;1.50;;
34489;SDS011;20730;49.372;7.324;2023-11-19T07:37:39;4.97;;;1.63;;
34489;SDS011;20730;49.372;7.324;2023-11-19T07:40:06;4.90;;;1.40;;
34489;SDS011;20730;49.372;7.324;2023-11-19T07:42:33;8.05;;;1.58;;
34489;SDS011;20730;49.372;7.324;2023-11-19T07:45:00;8.57;;;1.88;;
34489;SDS011;20730;49.372;7.324;2023-11-19T07:47:27;7.72;;;2.22;;
34489;SDS011;20730;49.372;7.324;2023-11-19T07:49:55;5.25;;;1.70;;
34489;SDS011;20730;49.372;7.324;2023-11-19T07:52:21;7.18;;;1.88;;
34489;SDS011;20730;49.372;7.324;2023-11-19T07:54:48;3.63;;;1.70;;
34489;SDS011;20730;49.372;7.324;2023-11-19T07:57:15;4.45;;;1.50;;
34489;SDS011;20730;49.372;7.324;2023-11-19T07:59:41;6.15;;;1.60;;
34489;SDS011;20730;49.372;7.324;2023-11-19T08:02:08;8.10;;;1.80;;
34489;SDS011;20730;49.372;7.324;2023-11-19T08:04:35;4.93;;;1.73;;
34489;SDS011;20730;49.372;7.324;2023-11-19T08:07:02;7.18;;;2.17;;
34489;SDS011;20730;49.372;7.324;2023-11-19T08:09:29;7.25;;;2.15;;
34489;SDS011;20730;49.372;7.324;2023-11-19T08:11:56;9.02;;;2.08;;
34489;SDS011;20730;49.372;7.324;2023-11-19T08:14:23;5.53;;;1.70;;
34489;SDS011;20730;49.372;7.324;2023-11-19T08:16:50;6.03;;;1.88;;
34489;SDS011;20730;49.372;7.324;2023-11-19T08:19:17;5.03;;;1.95;;
34489;SDS011;20730;49.372;7.324;2023-11-19T08:21:44;7.97;;;1.70;;
34489;SDS011;20730;49.372;7.324;2023-11-19T08:24:11;6.32;;;1.70;;
34489;SDS011;20730;49.372;7.324;2023-11-19T08:26:37;6.07;;;1.70;;
34489;SDS011;20730;49.372;7.324;2023-11-19T08:29:05;4.55;;;1.50;;
34489;SDS011;20730;49.372;7.324;2023-11-19T08:31:32;4.55;;;1.70;;
34489;SDS011;20730;49.372;7.324;2023-11-19T08:33:58;6.05;;;1.63;;
34489;SDS011;20730;49.372;7.324;2023-11-19T08:36:25;6.68;;;1.75;;
34489;SDS011;20730;49.372;7.324;2023-11-19T08:38:52;4.57;;;1.95;;
34489;SDS011;20730;49.372;7.324;2023-11-19T08:41:18;5.00;;;2.17;;
34489;SDS011;20730;49.372;7.324;2023-11-19T08:43:45;8.68;;;1.85;;
34489;SDS011;20730;49.372;7.324;2023-11-19T08:46:12;7.18;;;1.60;;
34489;SDS011;20730;49.372;7.324;2023-11-19T08:48:39;10.10;;;2.53;;
34489;SDS011;20730;49.372;7.324;2023-11-19T08:51:06;4.47;;;1.77;;
34489;SDS011;20730;49.372;7.324;2023-11-19T08:53:33;6.63;;;2.00;;
34489;SDS011;20730;49.372;7.324;2023-11-19T08:55:59;6.10;;;1.60;;
34489;SDS011;20730;49.372;7.324;2023-11-19T08:58:28;7.38;;;1.60;;
34489;SDS011;20730;49.372;7.324;2023-11-19T09:00:56;4.57;;;1.35;;
34489;SDS011;20730;49.372;7.324;2023-11-19T09:03:22;6.65;;;1.67;;
34489;SDS011;20730;49.372;7.324;2023-11-19T09:05:49;3.78;;;1.38;;
34489;SDS011;20730;49.372;7.324;2023-11-19T09:08:16;5.50;;;1.60;;
34489;SDS011;20730;49.372;7.324;2023-11-19T09:10:43;5.00;;;1.95;;
34489;SDS011;20730;49.372;7.324;2023-11-19T09:13:09;6.78;;;1.50;;
34489;SDS011;20730;49.372;7.324;2023-11-19T09:15:36;4.38;;;1.25;;
34489;SDS011;20730;49.372;7.324;2023-11-19T09:18:03;4.70;;;1.55;;
34489;SDS011;20730;49.372;7.324;2023-11-19T09:20:31;3.95;;;1.23;;
34489;SDS011;20730;49.372;7.324;2023-11-19T09:23:04;6.72;;;1.25;;
34489;SDS011;20730;49.372;7.324;2023-11-19T09:25:32;5.40;;;1.70;;
34489;SDS011;20730;49.372;7.324;2023-11-19T09:28:02;6.37;;;1.07;;
34489;SDS011;20730;49.372;7.324;2023-11-19T09:30:28;5.95;;;1.20;;
34489;SDS011;20730;49.372;7.324;2023-11-19T09:32:55;2.95;;;0.90;;
34489;SDS011;20730;49.372;7.324;2023-11-19T09:35:22;8.82;;;1.50;;
34489;SDS011;20730;49.372;7.324;2023-11-19T09:37:49;6.47;;;1.52;;
34489;SDS011;20730;49.372;7.324;2023-11-19T09:40:15;6.15;;;2.08;;
34489;SDS011;20730;49.372;7.324;2023-11-19T09:42:44;4.10;;;1.40;;
34489;SDS011;20730;49.372;7.324;2023-11-19T09:45:15;5.97;;;1.27;;
34489;SDS011;20730;49.372;7.324;2023-11-19T09:47:43;4.90;;;1.35;;
34489;SDS011;20730;49.372;7.324;2023-11-19T09:50:15;6.63;;;1.98;;
34489;SDS011;20730;49.372;7.324;2023-11-19T09:52:44;5.40;;;1.10;;
34489;SDS011;20730;49.372;7.324;2023-11-19T09:55:11;5.47;;;1.60;;
34489;SDS011;20730;49.372;7.324;2023-11-19T09:57:38;7.32;;;1.17;;
34489;SDS011;20730;49.372;7.324;2023-11-19T10:00:05;6.22;;;1.50;;
34489;SDS011;20730;49.372;7.324;2023-11-19T10:02:34;7.28;;;2.00;;
34489;SDS011;20730;49.372;7.324;2023-11-19T10:07:32;6.10;;;1.25;;
34489;SDS011;20730;49.372;7.324;2023-11-19T10:09:59;5.28;;;1.13;;
34489;SDS011;20730;49.372;7.324;2023-11-19T10:12:27;5.70;;;1.38;;
34489;SDS011;20730;49.372;7.324;2023-11-19T10:14:57;7.03;;;1.30;;
34489;SDS011;20730;49.372;7.324;2023-11-19T10:17:28;6.35;;;1.23;;
34489;SDS011;20730;49.372;7.324;2023-11-19T10:19:56;6.10;;;1.50;;
34489;SDS011;20730;49.372;7.324;2023-11-19T10:22:23;4.28;;;1.48;;
34489;SDS011;20730;49.372;7.324;2023-11-19T10:24:51;3.75;;;1.40;;
34489;SDS011;20730;49.372;7.324;2023-11-19T10:27:23;9.25;;;1.80;;
34489;SDS011;20730;49.372;7.324;2023-11-19T10:29:52;7.50;;;2.22;;
34489;SDS011;20730;49.372;7.324;2023-11-19T10:32:18;7.80;;;1.75;;
34489;SDS011;20730;49.372;7.324;2023-11-19T10:34:58;8.20;;;1.55;;
34489;SDS011;20730;49.372;7.324;2023-11-19T10:37:31;6.85;;;1.73;;
34489;SDS011;20730;49.372;7.324;2023-11-19T10:39:59;8.45;;;1.70;;
34489;SDS011;20730;49.372;7.324;2023-11-19T10:42:26;4.45;;;1.20;;
34489;SDS011;20730;49.372;7.324;2023-11-19T10:44:53;5.35;;;1.48;;
34489;SDS011;20730;49.372;7.324;2023-11-19T10:47:19;9.35;;;1.33;;
34489;SDS011;20730;49.372;7.324;2023-11-19T10:50:04;6.32;;;1.45;;
34489;SDS011;20730;49.372;7.324;2023-11-19T10:52:32;4.82;;;1.20;;
34489;SDS011;20730;49.372;7.324;2023-11-19T10:54:59;6.47;;;1.30;;
34489;SDS011;20730;49.372;7.324;2023-11-19T10:57:28;5.45;;;1.15;;
34489;SDS011;20730;49.372;7.324;2023-11-19T11:02:27;3.47;;;1.30;;
34489;SDS011;20730;49.372;7.324;2023-11-19T11:04:56;7.18;;;1.40;;
34489;SDS011;20730;49.372;7.324;2023-11-19T11:07:23;6.43;;;1.60;;
34489;SDS011;20730;49.372;7.324;2023-11-19T11:10:05;9.43;;;1.63;;
34489;SDS011;20730;49.372;7.324;2023-11-19T11:12:35;2.97;;;1.13;;
34489;SDS011;20730;49.372;7.324;2023-11-19T11:15:03;7.00;;;1.20;;
34489;SDS011;20730;49.372;7.324;2023-11-19T11:17:32;6.15;;;1.30;;
34489;SDS011;20730;49.372;7.324;2023-11-19T11:20:00;5.07;;;1.17;;
34489;SDS011;20730;49.372;7.324;2023-11-19T11:22:27;4.25;;;0.95;;
34489;SDS011;20730;49.372;7.324;2023-11-19T11:27:52;6.75;;;1.00;;
34489;SDS011;20730;49.372;7.324;2023-11-19T11:38:24;9.45;;;1.40;;
34489;SDS011;20730;49.372;7.324;2023-11-19T11:43:54;8.18;;;1.33;;
34489;SDS011;20730;49.372;7.324;2023-11-19T11:49:00;5.85;;;1.50;;
34489;SDS011;20730;49.372;7.324;2023-11-19T11:54:09;6.38;;;1.30;;
34489;SDS011;20730;49.372;7.324;2023-11-19T11:57:07;7.32;;;1.52;;
34489;SDS011;20730;49.372;7.324;2023-11-19T11:59:47;5.85;;;1.70;;
34489;SDS011;20730;49.372;7.324;2023-11-19T12:02:15;7.97;;;1.60;;
34489;SDS011;20730;49.372;7.324;2023-11-19T12:04:46;10.07;;;1.85;;
34489;SDS011;20730;49.372;7.324;2023-11-19T12:07:18;5.00;;;1.40;;
34489;SDS011;20730;49.372;7.324;2023-11-19T12:09:48;4.90;;;1.38;;
34489;SDS011;20730;49.372;7.324;2023-11-19T12:12:23;4.57;;;1.42;;
34489;SDS011;20730;49.372;7.324;2023-11-19T12:17:41;3.40;;;1.20;;
34489;SDS011;20730;49.372;7.324;2023-11-19T12:20:12;9.18;;;1.33;;
34489;SDS011;20730;49.372;7.324;2023-11-19T12:22:40;4.82;;;1.23;;
34489;SDS011;20730;49.372;7.324;2023-11-19T12:25:08;5.30;;;1.10;;
34489;SDS011;20730;49.372;7.324;2023-11-19T12:27:36;7.20;;;1.52;;
34489;SDS011;20730;49.372;7.324;2023-11-19T12:30:05;5.88;;;1.23;;
34489;SDS011;20730;49.372;7.324;2023-11-19T12:32:40;6.78;;;1.20;;
34489;SDS011;20730;49.372;7.324;2023-11-19T12:35:12;7.05;;;1.30;;
34489;SDS011;20730;49.372;7.324;2023-11-19T12:37:42;2.92;;;1.20;;
34489;SDS011;20730;49.372;7.324;2023-11-19T12:40:16;6.82;;;1.60;;
34489;SDS011;20730;49.372;7.324;2023-11-19T12:42:45;7.10;;;1.60;;
34489;SDS011;20730;49.372;7.324;2023-11-19T12:45:13;5.38;;;1.10;;
34489;SDS011;20730;49.372;7.324;2023-11-19T12:47:40;10.23;;;1.58;;
34489;SDS011;20730;49.372;7.324;2023-11-19T12:50:07;5.80;;;1.10;;
34489;SDS011;20730;49.372;7.324;2023-11-19T12:52:35;4.80;;;1.20;;
34489;SDS011;20730;49.372;7.324;2023-11-19T12:55:03;5.93;;;1.30;;
34489;SDS011;20730;49.372;7.324;2023-11-19T12:57:37;8.20;;;1.50;;
34489;SDS011;20730;49.372;7.324;2023-11-19T13:00:05;7.65;;;1.60;;
34489;SDS011;20730;49.372;7.324;2023-11-19T13:05:25;5.00;;;1.33;;
34489;SDS011;20730;49.372;7.324;2023-11-19T13:08:03;7.40;;;1.58;;
34489;SDS011;20730;49.372;7.324;2023-11-19T13:10:50;6.57;;;1.30;;
34489;SDS011;20730;49.372;7.324;2023-11-19T13:13:17;7.97;;;1.45;;
34489;SDS011;20730;49.372;7.324;2023-11-19T13:15:44;7.63;;;1.40;;
34489;SDS011;20730;49.372;7.324;2023-11-19T13:18:12;8.68;;;1.30;;
34489;SDS011;20730;49.372;7.324;2023-11-19T13:20:40;8.48;;;1.20;;
34489;SDS011;20730;49.372;7.324;2023-11-19T13:23:07;5.47;;;0.93;;
34489;SDS011;20730;49.372;7.324;2023-11-19T13:25:34;4.68;;;1.13;;
34489;SDS011;20730;49.372;7.324;2023-11-19T13:28:00;5.55;;;1.10;;
34489;SDS011;20730;49.372;7.324;2023-11-19T13:30:28;8.90;;;1.40;;
34489;SDS011;20730;49.372;7.324;2023-11-19T13:32:55;6.53;;;1.30;;
34489;SDS011;20730;49.372;7.324;2023-11-19T13:35:23;5.60;;;1.10;;
34489;SDS011;20730;49.372;7.324;2023-11-19T13:37:49;7.40;;;1.35;;
34489;SDS011;20730;49.372;7.324;2023-11-19T13:40:18;6.97;;;1.13;;
34489;SDS011;20730;49.372;7.324;2023-11-19T13:42:46;6.78;;;1.10;;
34489;SDS011;20730;49.372;7.324;2023-11-19T13:45:13;7.03;;;1.27;;
34489;SDS011;20730;49.372;7.324;2023-11-19T13:47:41;5.43;;;1.75;;
34489;SDS011;20730;49.372;7.324;2023-11-19T13:50:12;4.78;;;1.45;;
34489;SDS011;20730;49.372;7.324;2023-11-19T13:52:40;7.90;;;1.02;;
34489;SDS011;20730;49.372;7.324;2023-11-19T13:55:09;5.10;;;1.65;;
34489;SDS011;20730;49.372;7.324;2023-11-19T13:57:36;6.40;;;1.08;;
34489;SDS011;20730;49.372;7.324;2023-11-19T14:00:04;2.75;;;1.00;;
34489;SDS011;20730;49.372;7.324;2023-11-19T14:02:42;3.33;;;0.90;;
34489;SDS011;20730;49.372;7.324;2023-11-19T14:05:09;6.55;;;1.40;;
34489;SDS011;20730;49.372;7.324;2023-11-19T14:07:39;6.68;;;1.48;;
34489;SDS011;20730;49.372;7.324;2023-11-19T14:10:07;6.05;;;1.40;;
34489;SDS011;20730;49.372;7.324;2023-11-19T14:12:40;5.25;;;1.38;;
34489;SDS011;20730;49.372;7.324;2023-11-19T14:15:08;7.30;;;1.17;;
34489;SDS011;20730;49.372;7.324;2023-11-19T14:17:43;7.95;;;1.10;;
34489;SDS011;20730;49.372;7.324;2023-11-19T14:20:10;5.28;;;1.08;;
34489;SDS011;20730;49.372;7.324;2023-11-19T14:22:40;6.90;;;1.20;;
34489;SDS011;20730;49.372;7.324;2023-11-19T14:25:07;6.88;;;1.38;;
34489;SDS011;20730;49.372;7.324;2023-11-19T14:27:39;6.87;;;1.07;;
34489;SDS011;20730;49.372;7.324;2023-11-19T14:30:07;6.78;;;1.30;;
34489;SDS011;20730;49.372;7.324;2023-11-19T14:32:35;6.70;;;1.20;;
34489;SDS011;20730;49.372;7.324;2023-11-19T14:35:03;7.40;;;1.40;;
34489;SDS011;20730;49.372;7.324;2023-11-19T14:37:30;5.95;;;1.20;;
34489;SDS011;20730;49.372;7.324;2023-11-19T14:39:57;7.35;;;1.30;;
34489;SDS011;20730;49.372;7.324;2023-11-19T14:42:24;9.02;;;1.17;;
34489;SDS011;20730;49.372;7.324;2023-11-19T14:44:53;6.83;;;1.50;;
34489;SDS011;20730;49.372;7.324;2023-11-19T14:47:20;8.13;;;1.13;;
34489;SDS011;20730;49.372;7.324;2023-11-19T14:49:47;7.00;;;1.50;;
34489;SDS011;20730;49.372;7.324;2023-11-19T14:52:14;6.35;;;1.50;;
34489;SDS011;20730;49.372;7.324;2023-11-19T14:54:43;5.65;;;1.42;;
34489;SDS011;20730;49.372;7.324;2023-11-19T14:57:10;9.93;;;1.58;;
34489;SDS011;20730;49.372;7.324;2023-11-19T14:59:37;10.57;;;1.60;;
34489;SDS011;20730;49.372;7.324;2023-11-19T15:02:04;7.97;;;1.35;;
34489;SDS011;20730;49.372;7.324;2023-11-19T15:04:32;7.38;;;1.52;;
34489;SDS011;20730;49.372;7.324;2023-11-19T15:06:58;9.10;;;1.70;;
34489;SDS011;20730;49.372;7.324;2023-11-19T15:09:26;7.22;;;1.65;;
34489;SDS011;20730;49.372;7.324;2023-11-19T15:11:53;5.10;;;1.58;;
34489;SDS011;20730;49.372;7.324;2023-11-19T15:14:20;7.13;;;1.50;;
34489;SDS011;20730;49.372;7.324;2023-11-19T15:16:47;7.80;;;1.42;;
34489;SDS011;20730;49.372;7.324;2023-11-19T15:19:14;5.60;;;1.27;;
34489;SDS011;20730;49.372;7.324;2023-11-19T15:21:41;6.47;;;1.00;;
34489;SDS011;20730;49.372;7.324;2023-11-19T15:24:08;6.82;;;1.10;;